»·PEaware :: GBOJZ L52-L88

GBOJZ :: L52-L88

FLIGHT INFORMATION

Flight Status: Arrived
Operator: Unknown
More flights by this operator :: More flights under this callsign
Pilot: Aaron H. (23273)
Aircraft: PIPER PA-28 CHEROKEE ARCHER
(PA28)
More flights by this aircraft type
Origin: L52 Oceano Co
United States
Destination: L88 New Cuyama
United States
More flights between these airports :: More routes between these airports
Route:
File this flight plan on PilotEdge
Remarks: Sample flight plan
Altitude:
(Current/Filed)
7,500ft
Speed:
(Current/Filed)
115kts
Departed: 01-Feb-19 07:47 AM
Arrived: 01-Feb-19 08:28 AM
Distance/Time
Traveled:
47nm/0:40
Distance/Time
To Go:
Arrived

Flight Plot

Page will automatically refresh every two minutes.


Map Options




Map Legend


Flown Route
Filed Route
Departure Airport
Arrival Airport
Navaid (VOR, NDB)
Fix

Horizontal Profiles

Position Reports

Time Latitude Longitude Heading Altitude Ground
Speed
01-Feb-19 07:39 35.103092 -120.624061 213 15ft 0kts
01-Feb-19 07:39 35.103092 -120.624061 213 15ft 0kts
01-Feb-19 07:41 35.103092 -120.624061 213 15ft 0kts
01-Feb-19 07:42 35.103092 -120.624061 213 15ft 0kts
01-Feb-19 07:42 35.103092 -120.624061 213 15ft 0kts
01-Feb-19 07:43 35.103092 -120.624061 213 15ft 0kts
01-Feb-19 07:44 35.103501 -120.624432 320 14ft 11kts
01-Feb-19 07:46 35.103552 -120.625133 199 13ft 0kts
01-Feb-19 07:46 35.102538 -120.624145 122 14ft 43kts
01-Feb-19 07:47 35.097460 -120.601665 88 673ft 82kts
01-Feb-19 07:48 35.096218 -120.571001 88 1272ft 98kts
01-Feb-19 07:49 35.095365 -120.537366 87 1828ft 100kts
01-Feb-19 07:50 35.097268 -120.502540 85 2253ft 105kts
01-Feb-19 07:51 35.099898 -120.473285 82 2593ft 105kts
01-Feb-19 07:52 35.101447 -120.451984 83 2824ft 106kts
01-Feb-19 07:53 35.107136 -120.416744 79 3188ft 106kts
01-Feb-19 07:54 35.113631 -120.381341 81 3530ft 107kts
01-Feb-19 07:55 35.115984 -120.346095 88 3838ft 107kts
01-Feb-19 07:56 35.117389 -120.309863 86 4159ft 106kts
01-Feb-19 07:57 35.115852 -120.273991 101 4453ft 107kts
01-Feb-19 07:58 35.111164 -120.238500 90 4735ft 107kts
01-Feb-19 07:59 35.108521 -120.202695 93 4995ft 107kts
01-Feb-19 08:00 35.105958 -120.172118 93 5201ft 108kts
01-Feb-19 08:01 35.105130 -120.153228 87 5321ft 108kts
01-Feb-19 08:02 35.106942 -120.130253 82 5463ft 108kts
01-Feb-19 08:03 35.108798 -120.102590 89 5625ft 108kts
01-Feb-19 08:04 35.108860 -120.066313 93 5824ft 109kts
01-Feb-19 08:05 35.106738 -120.030853 78 6006ft 109kts
01-Feb-19 08:06 35.113778 -120.002276 80 6139ft 110kts
01-Feb-19 08:07 35.112660 -119.977815 91 6257ft 109kts
01-Feb-19 08:08 35.109721 -119.943867 102 6396ft 109kts
01-Feb-19 08:09 35.107468 -119.924343 92 6447ft 111kts
01-Feb-19 08:10 35.102682 -119.887311 107 6351ft 109kts
01-Feb-19 08:11 35.091604 -119.863415 126 6301ft 107kts
01-Feb-19 08:12 35.077823 -119.829084 110 6248ft 107kts
01-Feb-19 08:13 35.067296 -119.795267 115 6134ft 113kts
01-Feb-19 08:14 35.041084 -119.763327 148 5458ft 123kts
01-Feb-19 08:15 35.004662 -119.738641 152 3824ft 118kts
01-Feb-19 08:16 34.973943 -119.714298 142 2766ft 95kts
01-Feb-19 08:17 34.955217 -119.680637 98 2589ft 93kts
01-Feb-19 08:18 34.945398 -119.657288 190 2949ft 80kts
01-Feb-19 08:19 34.935893 -119.674298 298 2490ft 89kts
01-Feb-19 08:20 34.945994 -119.696821 306 2434ft 78kts
01-Feb-19 08:21 34.958059 -119.703876 7 2600ft 87kts
01-Feb-19 08:22 34.963815 -119.691030 95 2820ft 84kts
01-Feb-19 08:23 34.953744 -119.656293 106 3178ft 92kts
01-Feb-19 08:24 34.942596 -119.624622 166 3330ft 99kts
01-Feb-19 08:25 34.925452 -119.647139 285 3140ft 88kts
01-Feb-19 08:26 34.936207 -119.676568 296 2244ft 78kts
01-Feb-19 08:27 34.941712 -119.689862 291 2159ft 13kts
01-Feb-19 08:28 34.942698 -119.690669 216 2155ft 0kts
01-Feb-19 08:29 34.942698 -119.690669 216 2155ft 0kts
01-Feb-19 08:30 34.942698 -119.690669 216 2155ft 0kts
01-Feb-19 08:31 34.942698 -119.690669 216 2155ft 0kts
01-Feb-19 08:32 34.942698 -119.690669 216 2155ft 0kts
01-Feb-19 08:33 34.942698 -119.690669 216 2155ft 0kts
01-Feb-19 08:34 34.942698 -119.690669 216 2155ft 0kts
01-Feb-19 08:35 34.942698 -119.690669 216 2155ft 0kts
01-Feb-19 08:36 34.942698 -119.690669 216 2155ft 0kts
01-Feb-19 08:37 34.942698 -119.690669 216 2155ft 0kts
01-Feb-19 08:38 34.942698 -119.690669 216 2155ft 0kts
01-Feb-19 08:39 34.942698 -119.690669 216 2155ft 0kts
01-Feb-19 08:40 34.942698 -119.690669 216 2155ft 0kts
01-Feb-19 08:41 34.942698 -119.690669 216 2155ft 0kts

Navigation Log

Ident Type
Flight plan parsing failed, navigation log unavailable